Eleni K — SXTG — position and weather

sailwx.info

Track history (hours):
 
Tides and Currents Weather Stations Pressure Air Temp Water Temp Dewpoint Dewpoint Depression Visibility Wind Speed Wind Dir Waves Ship Positions

Eleni K

Last reported at 2017-Sep-20 05:21 UTC. Time now 2017-Sep-24 08:41 UTC.
Position N 38°06' E 022°52'.

Length 75 m; draft 3.7 m.

Type: Cargo ship. MMSI: 240652000.

Date/timePositionNaut miles runAvg speedWind from/ knotsBaromVisibWave heightAir tempDewpointWater temp
2017-Sep-20 05:21N 38°06' E 022°52'15 6.1
2017-Sep-20 02:49N 37°54' E 023°04'2 7.2
2017-Sep-20 02:29N 37°54' E 023°07'4 7.3
2017-Sep-20 02:00N 37°54' E 023°11'4 7.8
2017-Sep-20 01:30N 37°56' E 023°16'4 7.6
2017-Sep-20 01:00N 37°56' E 023°20'4 7.7
2017-Sep-20 00:30N 37°58' E 023°25'3 6.3
2017-Sep-20 00:00N 38°00' E 023°27'4 8.4
2017-Sep-19 23:30N 38°02' E 023°32'0 0.2
2017-Sep-19 23:00N 38°03' E 023°32'0 0.0
2017-Sep-19 22:30N 38°03' E 023°32'0 0.0
2017-Sep-19 22:00N 38°03' E 023°32'0 0.0
2017-Sep-19 21:30N 38°03' E 023°32'0 0.0
2017-Sep-19 21:00N 38°03' E 023°32'0 0.0
2017-Sep-19 20:30N 38°03' E 023°32'0 0.0
2017-Sep-19 20:00N 38°03' E 023°32'0 0.0
2017-Sep-19 19:30N 38°03' E 023°32'0 0.0
2017-Sep-19 19:00N 38°03' E 023°32'0 0.0
2017-Sep-19 18:30N 38°03' E 023°32'0 0.0
2017-Sep-19 18:00N 38°03' E 023°32'0 0.0
2017-Sep-19 17:31N 38°03' E 023°32'0 0.0
2017-Sep-19 17:00N 38°03' E 023°32'0 0.0
2017-Sep-19 16:30N 38°03' E 023°32'0 0.0
2017-Sep-19 16:01N 38°03' E 023°32'0 0.0
2017-Sep-19 15:30N 38°03' E 023°32'0 0.0
2017-Sep-19 15:00N 38°03' E 023°32'0 0.0
2017-Sep-19 14:30N 38°03' E 023°32'0 0.0
2017-Sep-19 14:00N 38°03' E 023°32'0 0.0
2017-Sep-19 13:30N 38°03' E 023°32'0 0.0
2017-Sep-19 13:00N 38°03' E 023°32'0 0.0
2017-Sep-19 12:30N 38°03' E 023°32'0 0.0
2017-Sep-19 12:00N 38°03' E 023°32'0 0.0
2017-Sep-19 11:31N 38°03' E 023°32'0 0.0
2017-Sep-19 11:00N 38°03' E 023°32'0 0.0
2017-Sep-19 10:31N 38°03' E 023°32'0 0.2
2017-Sep-19 10:00N 38°02' E 023°32'2 5.0
2017-Sep-19 09:30N 38°00' E 023°33'3 6.9
2017-Sep-19 09:00N 37°57' E 023°35'4 7.8
2017-Sep-19 08:31N 37°54' E 023°37'4 8.8
2017-Sep-19 08:00N 37°50' E 023°40'4 8.5
2017-Sep-19 07:31N 37°46' E 023°42'4 7.5
2017-Sep-19 07:00N 37°43' E 023°44'4 7.6
2017-Sep-19 06:30N 37°39' E 023°47'4 8.1
2017-Sep-19 05:59N 37°36' E 023°51'7 8.0
2017-Sep-19 05:06N 37°31' E 023°57'6 8.4
2017-Sep-19 04:24N 37°27' E 024°02'8 7.5
2017-Sep-19 03:22N 37°21' E 024°08'6 8.0
2017-Sep-19 02:38N 37°16' E 024°12'1 8.0
2017-Sep-19 02:30N 37°16' E 024°13'4 8.0
2017-Sep-19 01:58N 37°12' E 024°16'  
2017-Sep-13 18:07N 37°24' E 025°55'1 6.2
2017-Sep-13 18:01N 37°24' E 025°54'3 6.4
2017-Sep-13 17:31N 37°25' E 025°50'3 6.9
2017-Sep-13 17:01N 37°26' E 025°46'4 8.3
2017-Sep-13 16:29N 37°27' E 025°41'5 9.8
2017-Sep-13 15:59N 37°28' E 025°35'5 9.9
2017-Sep-13 15:30N 37°29' E 025°29'510.1
2017-Sep-13 15:00N 37°31' E 025°23'5 9.3
2017-Sep-13 14:31N 37°31' E 025°17'4 8.9
2017-Sep-13 14:01N 37°30' E 025°12'5 9.3
2017-Sep-13 13:30N 37°30' E 025°06'6 9.8
2017-Sep-13 12:51N 37°32' E 024°58'4 9.5
2017-Sep-13 12:29N 37°32' E 024°54'4 9.6
2017-Sep-13 12:01N 37°32' E 024°48'45 9.7
2017-Sep-13 07:22N 37°37' E 023°51'410.0
2017-Sep-13 06:59N 37°38' E 023°47'5 9.7
2017-Sep-13 06:30N 37°40' E 023°42'510.2
2017-Sep-13 06:00N 37°45' E 023°39'510.3
2017-Sep-13 05:31N 37°50' E 023°36'510.1
2017-Sep-13 05:00N 37°55' E 023°35'4 8.7
2017-Sep-13 04:30N 37°59' E 023°33'4 8.0
2017-Sep-13 04:01N 38°02' E 023°32'0 0.2
2017-Sep-13 03:30N 38°03' E 023°32'0 0.0
2017-Sep-13 03:00N 38°03' E 023°32'0 0.0
2017-Sep-13 02:30N 38°03' E 023°32'0 0.0
2017-Sep-13 02:00N 38°03' E 023°32'0 0.0
2017-Sep-13 01:30N 38°03' E 023°32'0 0.0
2017-Sep-13 01:01N 38°03' E 023°32'0 0.0
2017-Sep-13 00:30N 38°03' E 023°32'0 0.0
2017-Sep-13 00:01N 38°03' E 023°32'0 0.0
2017-Sep-12 23:31N 38°03' E 023°32'0 0.0
2017-Sep-12 23:00N 38°03' E 023°32'0 0.0
2017-Sep-12 22:30N 38°03' E 023°32'0 0.0
2017-Sep-12 22:01N 38°03' E 023°32'0 0.0
2017-Sep-12 21:31N 38°03' E 023°32'0 0.0
2017-Sep-12 21:01N 38°03' E 023°32'0 0.0
2017-Sep-12 20:30N 38°03' E 023°32'0 0.0
2017-Sep-12 20:00N 38°03' E 023°32'0 0.0
2017-Sep-12 19:31N 38°03' E 023°32'0 0.0
2017-Sep-12 19:01N 38°03' E 023°32'0 0.0
2017-Sep-12 18:31N 38°03' E 023°32'0 0.0
2017-Sep-12 18:00N 38°03' E 023°32'0 0.0
2017-Sep-12 17:31N 38°03' E 023°32'0 0.0
2017-Sep-12 17:00N 38°03' E 023°32'0 0.0
2017-Sep-12 16:31N 38°03' E 023°32'0 0.0
2017-Sep-12 16:00N 38°03' E 023°32'0 0.0
2017-Sep-12 15:31N 38°03' E 023°32'0 0.0
2017-Sep-12 15:01N 38°03' E 023°32'0 0.0
2017-Sep-12 14:31N 38°03' E 023°32'0 0.0
2017-Sep-12 14:00N 38°03' E 023°32'0 0.0
2017-Sep-12 13:31N 38°03' E 023°32'0 0.0
2017-Sep-12 13:00N 38°03' E 023°32'0 0.0
2017-Sep-12 12:30N 38°03' E 023°32'0 0.0
2017-Sep-12 12:00N 38°03' E 023°32'0 0.0
2017-Sep-12 11:30N 38°03' E 023°32'0 0.0
2017-Sep-12 11:01N 38°03' E 023°32'1 2.0
2017-Sep-12 10:31N 38°02' E 023°32'4 7.3
2017-Sep-12 10:01N 37°58' E 023°33'4 7.4
2017-Sep-12 09:30N 37°55' E 023°35'4 8.7
2017-Sep-12 09:01N 37°51' E 023°39'4 8.6
2017-Sep-12 08:31N 37°48' E 023°41'4 8.3
2017-Sep-12 08:00N 37°44' E 023°43'4 8.2
2017-Sep-12 07:30N 37°40' E 023°46'  
Track history (hours):
 
Tides and Currents Weather Stations Pressure Air Temp Water Temp Dewpoint Dewpoint Depression Visibility Wind Speed Wind Dir Waves Ship Positions

Eleni K

Last reported at 2017-Sep-20 05:21 UTC. Time now 2017-Sep-24 08:41 UTC.
Position N 38°06' E 022°52'.

Length 75 m; draft 3.7 m.

Type: Cargo ship. MMSI: 240652000.

Date/timePositionNaut miles runAvg speedWind from/ knotsBaromVisibWave heightAir tempDewpointWater temp
2017-Sep-20 05:21N 38°06' E 022°52'15 6.1
2017-Sep-20 02:49N 37°54' E 023°04'2 7.2
2017-Sep-20 02:29N 37°54' E 023°07'4 7.3
2017-Sep-20 02:00N 37°54' E 023°11'4 7.8
2017-Sep-20 01:30N 37°56' E 023°16'4 7.6
2017-Sep-20 01:00N 37°56' E 023°20'4 7.7
2017-Sep-20 00:30N 37°58' E 023°25'3 6.3
2017-Sep-20 00:00N 38°00' E 023°27'4 8.4
2017-Sep-19 23:30N 38°02' E 023°32'0 0.2
2017-Sep-19 23:00N 38°03' E 023°32'0 0.0
2017-Sep-19 22:30N 38°03' E 023°32'0 0.0
2017-Sep-19 22:00N 38°03' E 023°32'0 0.0
2017-Sep-19 21:30N 38°03' E 023°32'0 0.0
2017-Sep-19 21:00N 38°03' E 023°32'0 0.0
2017-Sep-19 20:30N 38°03' E 023°32'0 0.0
2017-Sep-19 20:00N 38°03' E 023°32'0 0.0
2017-Sep-19 19:30N 38°03' E 023°32'0 0.0
2017-Sep-19 19:00N 38°03' E 023°32'0 0.0
2017-Sep-19 18:30N 38°03' E 023°32'0 0.0
2017-Sep-19 18:00N 38°03' E 023°32'0 0.0
2017-Sep-19 17:31N 38°03' E 023°32'0 0.0
2017-Sep-19 17:00N 38°03' E 023°32'0 0.0
2017-Sep-19 16:30N 38°03' E 023°32'0 0.0
2017-Sep-19 16:01N 38°03' E 023°32'0 0.0
2017-Sep-19 15:30N 38°03' E 023°32'0 0.0
2017-Sep-19 15:00N 38°03' E 023°32'0 0.0
2017-Sep-19 14:30N 38°03' E 023°32'0 0.0
2017-Sep-19 14:00N 38°03' E 023°32'0 0.0
2017-Sep-19 13:30N 38°03' E 023°32'0 0.0
2017-Sep-19 13:00N 38°03' E 023°32'0 0.0
2017-Sep-19 12:30N 38°03' E 023°32'0 0.0
2017-Sep-19 12:00N 38°03' E 023°32'0 0.0
2017-Sep-19 11:31N 38°03' E 023°32'0 0.0
2017-Sep-19 11:00N 38°03' E 023°32'0 0.0
2017-Sep-19 10:31N 38°03' E 023°32'0 0.2
2017-Sep-19 10:00N 38°02' E 023°32'2 5.0
2017-Sep-19 09:30N 38°00' E 023°33'3 6.9
2017-Sep-19 09:00N 37°57' E 023°35'4 7.8
2017-Sep-19 08:31N 37°54' E 023°37'4 8.8
2017-Sep-19 08:00N 37°50' E 023°40'4 8.5
2017-Sep-19 07:31N 37°46' E 023°42'4 7.5
2017-Sep-19 07:00N 37°43' E 023°44'4 7.6
2017-Sep-19 06:30N 37°39' E 023°47'4 8.1
2017-Sep-19 05:59N 37°36' E 023°51'7 8.0
2017-Sep-19 05:06N 37°31' E 023°57'6 8.4
2017-Sep-19 04:24N 37°27' E 024°02'8 7.5
2017-Sep-19 03:22N 37°21' E 024°08'6 8.0
2017-Sep-19 02:38N 37°16' E 024°12'1 8.0
2017-Sep-19 02:30N 37°16' E 024°13'4 8.0
2017-Sep-19 01:58N 37°12' E 024°16'  
2017-Sep-13 18:07N 37°24' E 025°55'1 6.2
2017-Sep-13 18:01N 37°24' E 025°54'3 6.4
2017-Sep-13 17:31N 37°25' E 025°50'3 6.9
2017-Sep-13 17:01N 37°26' E 025°46'4 8.3
2017-Sep-13 16:29N 37°27' E 025°41'5 9.8
2017-Sep-13 15:59N 37°28' E 025°35'5 9.9
2017-Sep-13 15:30N 37°29' E 025°29'510.1
2017-Sep-13 15:00N 37°31' E 025°23'5 9.3
2017-Sep-13 14:31N 37°31' E 025°17'4 8.9
2017-Sep-13 14:01N 37°30' E 025°12'5 9.3
2017-Sep-13 13:30N 37°30' E 025°06'6 9.8
2017-Sep-13 12:51N 37°32' E 024°58'4 9.5
2017-Sep-13 12:29N 37°32' E 024°54'4 9.6
2017-Sep-13 12:01N 37°32' E 024°48'45 9.7
2017-Sep-13 07:22N 37°37' E 023°51'410.0
2017-Sep-13 06:59N 37°38' E 023°47'5 9.7
2017-Sep-13 06:30N 37°40' E 023°42'510.2
2017-Sep-13 06:00N 37°45' E 023°39'510.3
2017-Sep-13 05:31N 37°50' E 023°36'510.1
2017-Sep-13 05:00N 37°55' E 023°35'4 8.7
2017-Sep-13 04:30N 37°59' E 023°33'4 8.0
2017-Sep-13 04:01N 38°02' E 023°32'0 0.2
2017-Sep-13 03:30N 38°03' E 023°32'0 0.0
2017-Sep-13 03:00N 38°03' E 023°32'0 0.0
2017-Sep-13 02:30N 38°03' E 023°32'0 0.0
2017-Sep-13 02:00N 38°03' E 023°32'0 0.0
2017-Sep-13 01:30N 38°03' E 023°32'0 0.0
2017-Sep-13 01:01N 38°03' E 023°32'0 0.0
2017-Sep-13 00:30N 38°03' E 023°32'0 0.0
2017-Sep-13 00:01N 38°03' E 023°32'0 0.0
2017-Sep-12 23:31N 38°03' E 023°32'0 0.0
2017-Sep-12 23:00N 38°03' E 023°32'0 0.0
2017-Sep-12 22:30N 38°03' E 023°32'0 0.0
2017-Sep-12 22:01N 38°03' E 023°32'0 0.0
2017-Sep-12 21:31N 38°03' E 023°32'0 0.0
2017-Sep-12 21:01N 38°03' E 023°32'0 0.0
2017-Sep-12 20:30N 38°03' E 023°32'0 0.0
2017-Sep-12 20:00N 38°03' E 023°32'0 0.0
2017-Sep-12 19:31N 38°03' E 023°32'0 0.0
2017-Sep-12 19:01N 38°03' E 023°32'0 0.0
2017-Sep-12 18:31N 38°03' E 023°32'0 0.0
2017-Sep-12 18:00N 38°03' E 023°32'0 0.0
2017-Sep-12 17:31N 38°03' E 023°32'0 0.0
2017-Sep-12 17:00N 38°03' E 023°32'0 0.0
2017-Sep-12 16:31N 38°03' E 023°32'0 0.0
2017-Sep-12 16:00N 38°03' E 023°32'0 0.0
2017-Sep-12 15:31N 38°03' E 023°32'0 0.0
2017-Sep-12 15:01N 38°03' E 023°32'0 0.0
2017-Sep-12 14:31N 38°03' E 023°32'0 0.0
2017-Sep-12 14:00N 38°03' E 023°32'0 0.0
2017-Sep-12 13:31N 38°03' E 023°32'0 0.0
2017-Sep-12 13:00N 38°03' E 023°32'0 0.0
2017-Sep-12 12:30N 38°03' E 023°32'0 0.0
2017-Sep-12 12:00N 38°03' E 023°32'0 0.0
2017-Sep-12 11:30N 38°03' E 023°32'0 0.0
2017-Sep-12 11:01N 38°03' E 023°32'1 2.0
2017-Sep-12 10:31N 38°02' E 023°32'4 7.3
2017-Sep-12 10:01N 37°58' E 023°33'4 7.4
2017-Sep-12 09:30N 37°55' E 023°35'4 8.7
2017-Sep-12 09:01N 37°51' E 023°39'4 8.6
2017-Sep-12 08:31N 37°48' E 023°41'4 8.3
2017-Sep-12 08:00N 37°44' E 023°43'4 8.2
2017-Sep-12 07:30N 37°40' E 023°46'  

Dump ship's entire track history